TimeEDT,TemperatureF,Dew PointF,Humidity,Sea Level PressureIn,VisibilityMPH,Wind Direction,Wind SpeedMPH,Gust SpeedMPH,PrecipitationIn,Events,Conditions,WindDirDegrees,DateUTC
1:54 AM,45.0,33.1,63,30.17,10.0,South,8.1,-,0.00,Rain,Light Rain,180,2012-10-14 05:54:00
2:54 AM,45.0,37.0,74,30.18,6.0,Variable,3.5,17.3,0.02,Rain,Light Rain,0,2012-10-14 06:54:00
3:43 AM,42.8,39.2,87,30.13,2.5,ESE,5.8,-,0.20,Rain,Heavy Rain,120,2012-10-14 07:43:00
3:54 AM,44.1,41.0,89,30.14,2.5,ESE,5.8,-,0.27,Rain,Heavy Rain,120,2012-10-14 07:54:00
4:04 AM,44.6,41.0,87,30.12,3.0,Variable,4.6,-,0.05,Rain,Heavy Rain,0,2012-10-14 08:04:00
4:54 AM,44.1,41.0,89,30.11,8.0,Calm,Calm,-,0.16,Rain,Light Rain,0,2012-10-14 08:54:00
5:54 AM,46.0,41.0,83,30.10,8.0,Variable,4.6,-,0.10,Rain,Light Rain,0,2012-10-14 09:54:00
6:54 AM,45.0,43.0,93,30.09,10.0,Calm,Calm,-,0.02,Rain,Light Rain,0,2012-10-14 10:54:00
7:54 AM,46.0,44.1,93,30.10,4.0,NE,3.5,-,0.10,Rain,Light Rain,40,2012-10-14 11:54:00
8:54 AM,46.9,45.0,93,30.09,6.0,East,3.5,-,0.02,Rain,Light Rain,80,2012-10-14 12:54:00
9:54 AM,48.9,46.0,90,30.09,7.0,Calm,Calm,-,0.02,Rain,Light Rain,0,2012-10-14 13:54:00
10:54 AM,50.0,46.9,89,30.09,7.0,Calm,Calm,-,0.01,Rain,Light Rain,0,2012-10-14 14:54:00
11:30 AM,50.0,48.2,94,30.07,2.0,Calm,Calm,-,0.06,Rain,Light Rain,0,2012-10-14 15:30:00
11:40 AM,50.0,48.2,94,30.08,7.0,Calm,Calm,-,0.07,Rain,Light Rain,0,2012-10-14 15:40:00
11:54 AM,51.1,48.0,89,30.08,9.0,Calm,Calm,-,0.07,Rain,Light Rain,0,2012-10-14 15:54:00
12:54 PM,53.1,50.0,89,30.05,10.0,Calm,Calm,-,0.03,,Overcast,0,2012-10-14 16:54:00
1:54 PM,55.9,52.0,87,30.02,10.0,Calm,Calm,-,N/A,,Overcast,0,2012-10-14 17:54:00
2:54 PM,57.9,53.1,84,29.99,10.0,NNW,3.5,-,N/A,,Overcast,330,2012-10-14 18:54:00
3:50 PM,60.8,51.8,72,29.97,10.0,Calm,Calm,-,N/A,,Mostly Cloudy,0,2012-10-14 19:50:00
3:54 PM,61.0,52.0,72,29.97,10.0,Calm,Calm,-,N/A,,Mostly Cloudy,0,2012-10-14 19:54:00
4:54 PM,60.1,54.0,80,29.94,10.0,North,3.5,-,N/A,,Clear,350,2012-10-14 20:54:00
5:54 PM,62.1,51.1,67,29.94,10.0,SW,5.8,-,N/A,,Clear,220,2012-10-14 21:54:00
6:54 PM,60.1,51.1,72,29.93,10.0,Variable,3.5,-,N/A,,Clear,0,2012-10-14 22:54:00
7:54 PM,60.1,50.0,69,29.93,10.0,Calm,Calm,-,N/A,,Clear,0,2012-10-14 23:54:00
8:54 PM,62.1,50.0,65,29.91,10.0,Variable,5.8,-,N/A,,Clear,0,2012-10-15 00:54:00
9:54 PM,61.0,48.9,64,29.90,10.0,Calm,Calm,-,N/A,,Clear,0,2012-10-15 01:54:00
11:54 PM,59.0,46.0,62,29.88,10.0,Calm,Calm,-,N/A,,Clear,0,2012-10-15 03:54:00